Time;durP1;ratioP1;P1;durP2;ratioP2;P2;SDS_P1;SDS_P2;PMS_P1;PMS_P2;Temp;Humidity;BMP_temperature;BMP_pressure;BME280_temperature;BME280_humidity;BME280_pressure;Samples;Min_cycle;Max_cycle;Signal;HPM_P1;HPM_P2
2023/10/29 00:02:22;;;;;;;8.23;5.40;;;;;;;16.47;55.35;94814.19;4997814;28;20219;-74
2023/10/29 00:04:47;;;;;;;8.98;4.90;;;;;;;16.57;54.89;94813.81;5002137;28;20215;-74
2023/10/29 00:07:13;;;;;;;8.68;4.93;;;;;;;16.41;55.53;94814.09;5002305;28;20219;-74
2023/10/29 00:09:38;;;;;;;10.30;5.20;;;;;;;16.61;55.09;94820.41;4999660;28;20219;-74
2023/10/29 00:12:04;;;;;;;9.70;5.47;;;;;;;16.54;54.92;94815.06;5001211;28;20610;-75
2023/10/29 00:14:30;;;;;;;10.20;4.90;;;;;;;16.56;54.90;94812.19;4969261;28;20226;-74
2023/10/29 00:16:56;;;;;;;9.57;4.70;;;;;;;16.48;55.14;94815.00;5011052;28;20191;-74
2023/10/29 00:19:21;;;;;;;9.07;4.65;;;;;;;16.25;55.00;94821.34;4997945;28;20270;-74
2023/10/29 00:21:47;;;;;;;11.27;4.22;;;;;;;16.31;55.12;94823.25;5007521;28;20219;-74
2023/10/29 00:24:12;;;;;;;8.73;4.45;;;;;;;16.21;55.12;94825.38;4999241;28;20250;-74
2023/10/29 00:26:38;;;;;;;9.25;3.92;;;;;;;16.36;54.94;94833.28;5003220;28;20214;-74
2023/10/29 00:29:04;;;;;;;7.88;4.03;;;;;;;16.19;55.50;94830.06;5000255;28;20197;-74
2023/10/29 00:31:29;;;;;;;11.93;4.57;;;;;;;16.04;55.74;94839.94;4999495;28;20222;-74
2023/10/29 00:33:55;;;;;;;8.40;4.53;;;;;;;16.03;55.97;94835.63;5001673;28;20222;-74
2023/10/29 00:36:21;;;;;;;11.38;4.50;;;;;;;15.98;56.42;94840.69;5001357;28;20233;-74
2023/10/29 00:38:46;;;;;;;7.85;4.90;;;;;;;15.94;56.12;94834.13;5007828;28;20233;-74
2023/10/29 00:41:11;;;;;;;10.25;4.57;;;;;;;15.95;56.63;94835.75;5001982;28;20329;-73
2023/10/29 00:43:40;;;;;;;9.13;5.03;;;;;;;16.03;56.20;94839.09;5001433;28;20210;-74
2023/10/29 00:46:06;;;;;;;9.32;4.78;;;;;;;16.06;55.94;94840.56;4995136;28;20363;-74
2023/10/29 00:48:35;;;;;;;10.48;4.25;;;;;;;16.06;56.10;94845.84;5002932;28;20223;-74
2023/10/29 00:51:01;;;;;;;8.57;5.00;;;;;;;15.93;56.23;94848.38;4996785;28;20238;-74
2023/10/29 00:53:28;;;;;;;8.27;4.20;;;;;;;15.99;55.90;94859.06;5003972;28;20187;-74
2023/10/29 00:55:54;;;;;;;7.80;4.75;;;;;;;15.75;56.51;94859.44;5000932;28;20191;-74
2023/10/29 00:58:19;;;;;;;7.47;4.82;;;;;;;15.76;56.41;94851.28;5004389;28;20235;-74
2023/10/29 01:00:45;;;;;;;11.23;5.20;;;;;;;15.74;56.41;94850.63;5003863;28;20227;-74
2023/10/29 01:03:11;;;;;;;10.75;5.43;;;;;;;15.67;56.88;94855.03;5013209;28;20216;-74
2023/10/29 01:05:38;;;;;;;10.27;5.15;;;;;;;15.77;56.40;94855.59;5001207;28;20243;-74
2023/10/29 01:08:05;;;;;;;9.50;4.85;;;;;;;15.90;55.89;94862.00;5009902;28;20191;-74
2023/10/29 01:10:34;;;;;;;7.53;4.63;;;;;;;15.78;55.89;94859.06;5001826;28;20215;-74
2023/10/29 01:13:00;;;;;;;10.10;5.22;;;;;;;15.71;56.11;94856.31;4999714;28;20191;-74
2023/10/29 01:15:25;;;;;;;10.18;5.40;;;;;;;15.64;56.27;94861.53;5003167;28;20221;-74
2023/10/29 01:17:51;;;;;;;13.07;5.47;;;;;;;15.50;56.52;94869.50;4998656;28;20187;-74
2023/10/29 01:20:17;;;;;;;11.77;4.97;;;;;;;15.35;56.98;94862.41;5003064;28;20191;-74
2023/10/29 01:22:43;;;;;;;7.20;4.72;;;;;;;15.47;56.59;94870.69;4999852;28;20183;-74
2023/10/29 01:25:10;;;;;;;8.57;4.65;;;;;;;15.39;57.20;94868.94;5001114;28;20207;-74
2023/10/29 01:27:38;;;;;;;11.35;4.53;;;;;;;15.48;57.05;94866.22;5002896;28;20198;-74
2023/10/29 01:30:05;;;;;;;10.70;4.57;;;;;;;15.54;57.19;94865.47;4999954;28;20195;-74
2023/10/29 01:32:31;;;;;;;10.00;4.93;;;;;;;15.44;57.41;94863.09;5003398;28;20187;-74
2023/10/29 01:34:57;;;;;;;8.30;5.15;;;;;;;15.42;57.48;94863.31;4997964;28;20186;-74
2023/10/29 01:37:23;;;;;;;9.27;5.57;;;;;;;15.36;57.54;94861.38;5003415;28;20191;-74
2023/10/29 01:39:48;;;;;;;7.78;5.10;;;;;;;15.40;57.15;94859.19;5005506;28;20253;-74
2023/10/29 01:42:14;;;;;;;7.70;4.93;;;;;;;15.34;57.28;94862.56;5005388;28;20223;-73
2023/10/29 01:44:39;;;;;;;8.20;5.15;;;;;;;14.99;58.79;94868.47;5003855;28;20212;-74
2023/10/29 01:47:05;;;;;;;11.90;4.85;;;;;;;15.24;58.09;94870.00;5000155;28;20285;-74
2023/10/29 01:49:32;;;;;;;5.88;4.28;;;;;;;15.10;58.61;94869.81;5009794;28;20238;-74
2023/10/29 01:51:57;;;;;;;7.53;4.53;;;;;;;15.26;57.90;94868.78;5006013;28;20187;-74
2023/10/29 01:54:22;;;;;;;7.68;4.68;;;;;;;15.13;58.17;94864.16;5004387;28;20193;-74
2023/10/29 01:56:48;;;;;;;11.38;4.57;;;;;;;14.95;58.69;94869.81;5005259;28;20184;-74
2023/10/29 01:59:14;;;;;;;7.80;4.38;;;;;;;14.68;59.66;94865.97;5002400;28;20195;-74
2023/10/29 02:01:40;;;;;;;6.38;4.22;;;;;;;14.67;59.44;94863.47;5004425;28;20184;-74
2023/10/29 02:04:10;;;;;;;7.78;4.78;;;;;;;14.64;59.34;94869.13;5006046;28;20234;-74
2023/10/29 02:06:41;;;;;;;9.45;4.72;;;;;;;14.54;59.55;94864.09;5003455;28;20215;-74
2023/10/29 02:09:12;;;;;;;8.30;4.80;;;;;;;14.42;60.24;94866.31;5004620;28;20229;-74
2023/10/29 02:11:38;;;;;;;7.95;4.50;;;;;;;14.38;59.84;94866.84;5005856;28;20294;-74
2023/10/29 02:14:07;;;;;;;9.63;4.00;;;;;;;14.37;60.09;94870.50;5002933;28;20194;-74
2023/10/29 02:16:33;;;;;;;7.07;4.22;;;;;;;14.40;60.04;94873.63;5011078;28;20227;-74
2023/10/29 02:18:58;;;;;;;6.72;4.57;;;;;;;14.53;59.53;94876.50;5005106;28;20250;-74
2023/10/29 02:21:24;;;;;;;9.05;5.20;;;;;;;14.44;59.73;94866.97;5009611;28;20277;-74
2023/10/29 02:23:54;;;;;;;7.32;4.50;;;;;;;14.68;59.01;94878.38;4987378;28;20223;-74
2023/10/29 02:26:20;;;;;;;7.57;5.03;;;;;;;14.73;58.90;94882.13;5005466;28;20180;-73
2023/10/29 02:28:46;;;;;;;7.82;4.90;;;;;;;14.67;58.67;94879.34;4996747;28;20179;-74
2023/10/29 02:31:18;;;;;;;8.98;4.35;;;;;;;14.68;58.69;94888.97;5002860;28;20256;-74
2023/10/29 02:33:44;;;;;;;8.50;4.93;;;;;;;14.68;58.79;94891.59;4998684;28;20245;-74
2023/10/29 02:36:10;;;;;;;9.27;4.95;;;;;;;14.62;58.73;94900.25;5004682;28;20314;-74
2023/10/29 02:38:40;;;;;;;7.95;4.10;;;;;;;14.61;58.43;94890.66;5000180;28;20219;-74
2023/10/29 02:41:06;;;;;;;12.80;4.80;;;;;;;14.61;58.43;94896.78;5000825;28;20267;-74
2023/10/29 02:43:32;;;;;;;8.65;4.38;;;;;;;14.57;58.04;94892.88;5005191;28;20215;-74
2023/10/29 02:45:57;;;;;;;7.03;4.63;;;;;;;14.69;57.88;94893.25;5002479;28;20227;-74
2023/10/29 02:48:24;;;;;;;7.15;4.13;;;;;;;14.65;58.48;94899.88;4999421;28;20227;-74
2023/10/29 02:50:51;;;;;;;9.40;4.30;;;;;;;14.58;58.14;94896.31;5002151;28;20231;-73
2023/10/29 02:53:17;;;;;;;6.63;4.18;;;;;;;14.60;58.17;94895.16;5001762;28;20184;-73
2023/10/29 02:55:42;;;;;;;9.95;4.70;;;;;;;14.46;58.26;94886.16;5003317;28;20175;-73
2023/10/29 02:58:07;;;;;;;11.23;4.35;;;;;;;14.17;59.12;94896.63;5002836;28;20362;-74
2023/10/29 03:00:33;;;;;;;7.75;4.18;;;;;;;14.23;59.15;94882.69;4996651;28;20219;-74
2023/10/29 03:02:58;;;;;;;6.63;4.10;;;;;;;14.28;58.69;94894.38;5000600;28;20310;-74
2023/10/29 03:05:24;;;;;;;9.10;4.40;;;;;;;14.34;58.10;94892.84;5003121;28;20218;-73
2023/10/29 03:07:49;;;;;;;6.75;4.10;;;;;;;14.31;58.14;94904.59;5008741;28;20178;-74
2023/10/29 03:10:14;;;;;;;9.90;3.78;;;;;;;14.24;58.59;94898.38;4999673;28;20216;-74
2023/10/29 03:12:40;;;;;;;9.27;4.40;;;;;;;14.19;58.57;94902.56;5005008;28;20295;-74
2023/10/29 03:15:06;;;;;;;8.30;4.28;;;;;;;14.18;58.43;94907.03;4999602;28;20219;-73
2023/10/29 03:17:31;;;;;;;8.02;4.20;;;;;;;14.33;58.03;94904.44;4994659;28;20294;-73
2023/10/29 03:19:57;;;;;;;8.02;4.50;;;;;;;14.31;58.06;94911.72;5000928;28;20245;-73
2023/10/29 03:22:22;;;;;;;8.75;4.88;;;;;;;14.33;58.09;94910.56;4998663;28;20226;-74
2023/10/29 03:24:47;;;;;;;10.57;5.07;;;;;;;14.12;59.15;94918.31;5000561;28;20224;-73
2023/10/29 03:27:13;;;;;;;7.57;4.97;;;;;;;14.12;58.79;94919.13;5002826;28;20282;-73
2023/10/29 03:29:38;;;;;;;9.05;4.78;;;;;;;14.10;58.47;94915.84;5003668;28;20235;-74
2023/10/29 03:32:04;;;;;;;9.23;5.25;;;;;;;14.08;58.74;94922.28;5007064;28;20179;-74
2023/10/29 03:34:32;;;;;;;11.07;5.63;;;;;;;14.03;58.77;94928.13;5001374;28;20298;-74
2023/10/29 03:36:58;;;;;;;14.48;6.15;;;;;;;13.99;58.81;94931.28;5005261;28;20219;-74
2023/10/29 03:39:24;;;;;;;10.98;5.90;;;;;;;14.08;58.66;94928.41;4998910;28;20298;-74
2023/10/29 03:41:49;;;;;;;12.18;6.57;;;;;;;14.06;58.35;94925.13;5003763;28;20238;-74
2023/10/29 03:44:15;;;;;;;11.00;7.50;;;;;;;13.88;59.00;94927.22;5001415;28;20211;-73
2023/10/29 03:46:40;;;;;;;14.65;7.25;;;;;;;13.90;58.92;94930.53;5002719;28;20275;-74
2023/10/29 03:49:06;;;;;;;10.50;6.95;;;;;;;14.02;58.72;94939.69;5003068;28;20227;-73
2023/10/29 03:51:32;;;;;;;10.60;7.65;;;;;;;13.97;58.85;94934.09;5006489;28;20739;-74
2023/10/29 03:53:57;;;;;;;12.32;7.32;;;;;;;13.96;58.63;94929.81;5001789;28;20227;-74
2023/10/29 03:56:23;;;;;;;18.58;7.25;;;;;;;13.90;58.75;94930.53;5007331;28;20182;-73
2023/10/29 03:58:49;;;;;;;11.32;7.05;;;;;;;13.99;58.43;94923.34;5004337;28;20189;-74
2023/10/29 04:01:15;;;;;;;10.82;7.32;;;;;;;13.76;59.26;94932.06;4998875;28;20222;-74
2023/10/29 04:03:41;;;;;;;14.93;7.55;;;;;;;13.56;60.05;94938.78;5002627;28;20579;-73
2023/10/29 04:06:11;;;;;;;9.25;6.60;;;;;;;13.79;59.56;94942.31;4997721;28;20239;-74
2023/10/29 04:08:37;;;;;;;7.72;5.55;;;;;;;13.77;59.76;94944.28;5003594;28;20219;-73
2023/10/29 04:11:03;;;;;;;11.48;6.65;;;;;;;13.66;59.76;94947.31;5007065;28;20183;-74
2023/10/29 04:13:28;;;;;;;8.85;6.30;;;;;;;13.68;59.95;94945.31;5000219;28;20226;-74
2023/10/29 04:15:54;;;;;;;11.73;6.25;;;;;;;13.80;59.43;94954.50;5007049;28;20262;-73
2023/10/29 04:18:23;;;;;;;13.63;6.70;;;;;;;13.68;59.82;94954.09;5004532;28;20326;-74
2023/10/29 04:20:48;;;;;;;14.05;6.93;;;;;;;13.63;59.46;94948.50;4998084;28;20223;-72
2023/10/29 04:23:14;;;;;;;9.30;5.60;;;;;;;13.54;60.09;94938.13;5001225;28;20187;-73
2023/10/29 04:25:41;;;;;;;8.98;5.45;;;;;;;13.36;61.19;94943.63;5010813;28;20203;-73
2023/10/29 04:28:07;;;;;;;8.63;4.95;;;;;;;13.50;60.27;94939.44;5004967;28;20220;-74
2023/10/29 04:30:32;;;;;;;9.13;5.10;;;;;;;13.26;60.94;94933.28;5002437;28;20242;-74
2023/10/29 04:32:58;;;;;;;9.35;5.70;;;;;;;13.37;60.37;94934.72;5004712;28;20274;-74
2023/10/29 04:35:24;;;;;;;7.65;5.35;;;;;;;13.43;60.39;94934.03;4997542;28;20203;-74
2023/10/29 04:37:49;;;;;;;9.65;5.88;;;;;;;13.43;60.39;94934.84;5007504;28;20215;-74
2023/10/29 04:40:15;;;;;;;14.55;5.00;;;;;;;13.29;60.73;94940.03;4999399;28;20221;-74
2023/10/29 04:42:40;;;;;;;9.52;5.57;;;;;;;13.45;60.14;94938.16;5000221;28;20231;-74
2023/10/29 04:45:06;;;;;;;10.75;5.72;;;;;;;13.53;59.79;94936.50;5002823;28;20227;-74
2023/10/29 04:47:31;;;;;;;11.20;6.10;;;;;;;13.34;59.94;94932.41;5002773;28;20226;-74
2023/10/29 04:49:57;;;;;;;15.55;5.90;;;;;;;13.26;59.59;94943.84;5000222;28;20210;-74
2023/10/29 04:52:22;;;;;;;8.63;5.57;;;;;;;13.46;59.56;94949.53;5009165;28;20227;-74
2023/10/29 04:54:48;;;;;;;7.50;4.97;;;;;;;13.19;60.68;94945.47;5000608;28;20213;-74
2023/10/29 04:57:13;;;;;;;9.27;5.22;;;;;;;13.20;61.01;94955.03;4997102;28;20586;-74
2023/10/29 04:59:38;;;;;;;11.70;5.80;;;;;;;13.06;60.78;94964.47;5005447;28;20215;-74
2023/10/29 05:02:04;;;;;;;11.10;5.18;;;;;;;12.89;61.19;94963.69;4996854;28;20187;-74
2023/10/29 05:04:30;;;;;;;7.90;5.50;;;;;;;12.96;60.98;94967.31;5003162;28;20230;-74
2023/10/29 05:06:55;;;;;;;11.23;5.10;;;;;;;12.94;61.24;94961.38;4999164;28;20223;-74
2023/10/29 05:09:21;;;;;;;8.95;5.47;;;;;;;12.96;61.33;94975.25;5007714;28;20220;-74
2023/10/29 05:11:47;;;;;;;10.90;5.13;;;;;;;13.05;61.11;94986.59;4996479;28;20223;-74
2023/10/29 05:14:13;;;;;;;11.38;5.55;;;;;;;13.10;60.86;94984.28;5004046;28;20205;-75
2023/10/29 05:16:38;;;;;;;9.52;5.47;;;;;;;13.22;60.62;94996.13;4997498;28;20179;-75
2023/10/29 05:19:04;;;;;;;8.13;5.13;;;;;;;13.04;60.92;95003.41;5003799;28;20222;-77
2023/10/29 05:21:29;;;;;;;8.43;5.45;;;;;;;12.92;61.57;95000.31;5006488;28;20219;-75
2023/10/29 05:23:55;;;;;;;9.05;5.95;;;;;;;12.96;61.33;95006.91;5002772;28;20223;-75
2023/10/29 05:26:20;;;;;;;8.98;5.75;;;;;;;12.89;61.67;95018.28;5008154;28;20179;-77
2023/10/29 05:28:46;;;;;;;8.45;5.60;;;;;;;13.09;61.38;95016.94;5004128;28;20191;-76
2023/10/29 05:31:11;;;;;;;7.03;5.05;;;;;;;13.02;61.60;95013.34;5000835;28;20278;-75
2023/10/29 05:33:37;;;;;;;14.35;5.75;;;;;;;12.99;61.36;95013.63;5007663;28;20226;-75
2023/10/29 05:36:04;;;;;;;9.27;5.47;;;;;;;13.07;61.19;95011.03;5015464;28;20222;-75
2023/10/29 05:38:29;;;;;;;7.82;4.80;;;;;;;12.89;61.58;95011.19;5005195;28;20254;-75
2023/10/29 05:40:55;;;;;;;7.00;4.53;;;;;;;12.84;61.85;95012.69;5006483;28;20279;-75
2023/10/29 05:43:20;;;;;;;7.07;4.75;;;;;;;12.93;61.64;95022.22;5004573;28;20223;-75
2023/10/29 05:45:46;;;;;;;8.05;4.93;;;;;;;12.92;61.35;95021.41;5003711;28;20233;-75
2023/10/29 05:48:12;;;;;;;8.07;4.47;;;;;;;13.10;60.73;95021.25;5003150;28;20238;-74
2023/10/29 05:50:38;;;;;;;7.80;4.70;;;;;;;13.41;60.07;95026.63;5007215;28;20226;-75
2023/10/29 05:53:04;;;;;;;6.53;4.18;;;;;;;13.19;60.71;95025.50;5006853;28;20175;-75
2023/10/29 05:55:29;;;;;;;7.72;4.55;;;;;;;13.42;59.78;95035.41;5000746;28;20222;-74
2023/10/29 05:57:55;;;;;;;7.80;5.10;;;;;;;13.56;60.00;95034.72;5003522;28;20223;-74
2023/10/29 06:00:21;;;;;;;8.23;4.13;;;;;;;13.67;59.65;95042.25;5007275;28;20239;-75
2023/10/29 06:02:47;;;;;;;8.20;4.45;;;;;;;13.66;59.83;95040.63;5004496;28;20233;-74
2023/10/29 06:05:13;;;;;;;8.07;4.53;;;;;;;13.75;59.54;95046.69;5002582;28;20207;-74
2023/10/29 06:07:43;;;;;;;7.57;4.97;;;;;;;13.78;59.71;95049.00;5008703;28;20182;-74
2023/10/29 06:10:13;;;;;;;9.00;4.93;;;;;;;13.93;59.40;95062.34;5007160;28;20282;-75
2023/10/29 06:12:39;;;;;;;8.32;5.15;;;;;;;13.78;59.49;95059.56;5007073;28;20215;-75
2023/10/29 06:15:07;;;;;;;7.53;5.10;;;;;;;13.83;59.60;95061.72;5011168;28;20223;-76
2023/10/29 06:17:33;;;;;;;5.78;5.10;;;;;;;13.95;59.33;95070.06;5004595;28;20235;-75
2023/10/29 06:19:59;;;;;;;9.95;4.88;;;;;;;13.97;59.21;95070.75;5002803;28;20187;-75
2023/10/29 06:22:24;;;;;;;9.00;4.88;;;;;;;14.03;59.07;95062.13;5007402;28;20225;-76
2023/10/29 06:24:50;;;;;;;9.90;5.40;;;;;;;14.10;58.74;95057.78;5004055;28;20232;-75
2023/10/29 06:27:16;;;;;;;11.23;6.30;;;;;;;14.15;58.56;95070.50;5005092;28;20230;-75
2023/10/29 06:29:41;;;;;;;9.27;5.32;;;;;;;14.22;58.10;95074.09;5003944;28;20223;-77
2023/10/29 06:32:07;;;;;;;12.30;6.38;;;;;;;14.35;58.10;95071.72;5006028;28;20354;-76
2023/10/29 06:34:33;;;;;;;12.38;8.43;;;;;;;14.33;58.07;95079.03;5008204;28;20584;-75
2023/10/29 06:36:58;;;;;;;10.50;6.78;;;;;;;14.45;57.59;95077.59;5003051;28;20302;-76
2023/10/29 06:39:23;;;;;;;10.60;6.35;;;;;;;14.45;57.10;95077.59;5004270;28;20231;-76
2023/10/29 06:41:49;;;;;;;10.48;6.55;;;;;;;14.37;57.49;95075.00;5008415;28;20269;-76
2023/10/29 06:44:14;;;;;;;8.52;6.00;;;;;;;14.48;57.06;95074.63;5005075;28;20203;-73
2023/10/29 06:46:40;;;;;;;9.55;6.50;;;;;;;14.72;56.44;95078.16;5008771;28;20262;-76
2023/10/29 06:49:05;;;;;;;9.27;6.60;;;;;;;14.78;56.52;95078.28;5002750;28;20284;-75
2023/10/29 06:51:30;;;;;;;10.95;6.53;;;;;;;14.68;56.32;95090.91;5005651;28;20242;-75
2023/10/29 06:53:56;;;;;;;11.25;6.57;;;;;;;14.87;55.52;95089.63;5000509;28;20223;-76
2023/10/29 06:56:21;;;;;;;11.07;6.45;;;;;;;14.90;55.70;95091.09;5004283;28;20244;-76
2023/10/29 06:58:47;;;;;;;9.13;6.32;;;;;;;15.03;55.60;95095.81;5004691;28;20252;-77
2023/10/29 07:01:12;;;;;;;10.55;6.75;;;;;;;14.98;55.66;95094.50;5009768;28;20223;-75
2023/10/29 07:03:38;;;;;;;10.32;6.57;;;;;;;14.95;55.69;95092.22;5006992;28;20231;-75
2023/10/29 07:06:08;;;;;;;7.97;6.20;;;;;;;15.13;55.20;95104.31;5007247;28;20234;-76
2023/10/29 07:08:34;;;;;;;13.38;5.30;;;;;;;15.19;54.65;95111.56;5002465;28;20224;-76
2023/10/29 07:11:01;;;;;;;9.05;5.55;;;;;;;15.28;54.21;95113.13;5003604;28;20179;-76
2023/10/29 07:13:26;;;;;;;12.30;5.97;;;;;;;15.31;53.97;95112.78;5000750;28;20219;-76
2023/10/29 07:15:53;;;;;;;8.95;5.65;;;;;;;15.33;53.72;95116.09;5005834;28;20211;-75
2023/10/29 07:18:19;;;;;;;10.85;5.50;;;;;;;15.50;53.75;95121.22;4992206;28;20223;-76
2023/10/29 07:20:45;;;;;;;9.88;5.57;;;;;;;15.52;53.63;95111.28;5001233;28;20235;-75
2023/10/29 07:23:10;;;;;;;9.77;6.57;;;;;;;15.60;53.11;95112.03;5002626;28;20196;-75
2023/10/29 07:25:36;;;;;;;9.50;6.57;;;;;;;15.69;53.34;95102.22;4998284;28;20218;-75
2023/10/29 07:28:01;;;;;;;9.70;6.50;;;;;;;15.65;53.25;95096.41;5006530;28;20218;-75
2023/10/29 07:30:27;;;;;;;9.13;6.28;;;;;;;15.81;52.58;95098.09;5000413;28;20216;-74
2023/10/29 07:32:53;;;;;;;12.55;6.70;;;;;;;15.95;52.34;95106.25;5007172;28;20250;-76
2023/10/29 07:35:18;;;;;;;9.73;6.13;;;;;;;15.96;51.86;95111.38;5004404;28;20255;-74
2023/10/29 07:37:43;;;;;;;7.45;5.90;;;;;;;16.13;51.40;95109.34;5000184;28;20172;-75
2023/10/29 07:40:09;;;;;;;9.85;6.53;;;;;;;16.08;51.52;95117.84;5002852;28;20227;-76
2023/10/29 07:42:34;;;;;;;8.32;5.80;;;;;;;16.25;51.14;95115.84;4998988;28;20235;-76
2023/10/29 07:45:00;;;;;;;9.90;6.47;;;;;;;16.30;51.10;95113.47;5004591;28;20325;-76
2023/10/29 07:47:25;;;;;;;11.60;6.47;;;;;;;16.23;50.99;95107.25;5004222;28;20174;-76
2023/10/29 07:49:51;;;;;;;7.55;6.32;;;;;;;16.33;50.71;95106.94;5002557;28;20187;-74
2023/10/29 07:52:16;;;;;;;8.82;6.13;;;;;;;16.38;50.70;95106.41;5002348;28;20219;-76
2023/10/29 07:54:42;;;;;;;11.48;6.45;;;;;;;16.31;50.65;95107.16;5010038;28;20602;-76
2023/10/29 07:57:07;;;;;;;13.38;6.70;;;;;;;16.34;50.74;95105.16;5000286;28;20227;-75
2023/10/29 07:59:36;;;;;;;9.95;6.15;;;;;;;16.37;50.90;95110.91;5001943;28;20219;-75
2023/10/29 08:02:02;;;;;;;9.18;6.30;;;;;;;16.52;50.54;95101.09;5000228;28;20201;-77
2023/10/29 08:04:28;;;;;;;9.82;6.05;;;;;;;16.64;50.36;95098.75;5003801;28;20226;-76
2023/10/29 08:06:57;;;;;;;11.48;6.30;;;;;;;16.69;50.37;95111.47;5000536;28;20636;-76
2023/10/29 08:09:22;;;;;;;9.13;5.72;;;;;;;16.72;50.13;95105.78;5006311;28;20231;-77
2023/10/29 08:11:48;;;;;;;8.07;4.03;;;;;;;16.61;49.60;95107.09;4999748;28;20218;-75
2023/10/29 08:14:14;;;;;;;7.00;3.75;;;;;;;16.62;48.92;95103.41;5003213;28;20270;-75
2023/10/29 08:16:41;;;;;;;5.82;3.75;;;;;;;16.84;48.65;95111.44;5001109;28;20247;-75
2023/10/29 08:19:07;;;;;;;10.38;4.00;;;;;;;16.94;48.30;95112.78;5005031;28;20234;-76
2023/10/29 08:21:32;;;;;;;8.98;4.25;;;;;;;16.95;48.86;95113.63;5003462;28;20223;-75
2023/10/29 08:23:58;;;;;;;7.47;4.68;;;;;;;17.05;49.28;95124.75;4998827;28;20223;-74
2023/10/29 08:26:26;;;;;;;8.52;5.10;;;;;;;17.15;48.99;95122.59;5001007;28;20207;-75
2023/10/29 08:28:51;;;;;;;6.85;4.80;;;;;;;17.23;48.63;95120.84;5000488;28;20222;-76
2023/10/29 08:31:16;;;;;;;9.23;5.00;;;;;;;17.33;47.84;95124.81;4999713;28;20215;-76
2023/10/29 08:33:42;;;;;;;7.13;4.97;;;;;;;17.39;47.92;95125.88;5000530;28;20282;-75
2023/10/29 08:36:08;;;;;;;9.10;5.10;;;;;;;17.50;47.65;95125.38;5001612;28;20219;-77
2023/10/29 08:38:34;;;;;;;11.85;5.35;;;;;;;17.58;47.20;95125.22;4997788;28;20306;-75
2023/10/29 08:40:59;;;;;;;8.02;4.85;;;;;;;17.65;46.79;95125.28;5004059;28;20314;-76
2023/10/29 08:43:25;;;;;;;8.07;4.60;;;;;;;17.62;46.70;95123.03;5004498;28;20270;-76
2023/10/29 08:45:50;;;;;;;9.05;4.65;;;;;;;17.79;46.13;95115.59;5002145;28;20314;-76
2023/10/29 08:48:16;;;;;;;10.68;4.97;;;;;;;17.79;46.42;95121.75;4993563;28;20232;-77
2023/10/29 08:50:42;;;;;;;10.57;5.30;;;;;;;17.84;46.17;95126.50;5002742;28;20219;-76
2023/10/29 08:53:07;;;;;;;8.35;5.35;;;;;;;17.79;45.66;95132.38;5000247;28;20187;-76
2023/10/29 08:55:36;;;;;;;9.02;5.55;;;;;;;17.89;45.29;95131.22;4996341;28;20226;-76
2023/10/29 08:58:01;;;;;;;9.60;5.20;;;;;;;17.81;44.96;95132.19;5002187;28;20231;-76
2023/10/29 09:00:27;;;;;;;8.70;4.63;;;;;;;17.97;44.70;95136.41;5001140;28;20230;-77
2023/10/29 09:02:52;;;;;;;8.52;3.90;;;;;;;17.92;44.71;95126.34;5008449;28;20285;-76
2023/10/29 09:05:18;;;;;;;7.88;4.25;;;;;;;18.04;44.24;95127.44;5007112;28;20207;-75
2023/10/29 09:07:44;;;;;;;7.57;4.25;;;;;;;18.09;44.13;95124.19;5006499;28;20191;-76
2023/10/29 09:10:10;;;;;;;6.90;4.18;;;;;;;18.10;44.24;95122.38;5000108;28;20223;-76
2023/10/29 09:12:36;;;;;;;7.32;3.95;;;;;;;18.18;43.79;95114.22;5008486;28;20278;-76
2023/10/29 09:15:02;;;;;;;7.13;3.80;;;;;;;18.33;43.53;95117.56;5005245;28;20296;-76
2023/10/29 09:17:28;;;;;;;7.35;3.55;;;;;;;18.42;43.56;95118.25;5004827;28;20191;-75
2023/10/29 09:19:54;;;;;;;8.02;3.50;;;;;;;18.51;42.68;95114.38;5007394;28;20179;-76
2023/10/29 09:22:19;;;;;;;6.50;3.08;;;;;;;18.55;43.12;95110.31;5002735;28;20223;-75
2023/10/29 09:24:45;;;;;;;11.18;3.88;;;;;;;18.59;42.73;95110.72;5004090;28;20294;-77
2023/10/29 09:27:10;;;;;;;7.55;3.20;;;;;;;18.52;42.66;95114.19;5004271;28;20257;-75
2023/10/29 09:29:36;;;;;;;7.75;3.38;;;;;;;18.49;42.79;95111.09;5003589;28;20214;-77
2023/10/29 09:32:07;;;;;;;6.13;3.40;;;;;;;18.66;42.42;95107.06;5001285;28;20195;-76
2023/10/29 09:34:32;;;;;;;9.27;3.53;;;;;;;18.85;42.52;95108.19;5007943;28;20249;-76
2023/10/29 09:36:58;;;;;;;4.80;3.13;;;;;;;18.86;42.45;95107.16;5003764;28;20215;-77
2023/10/29 09:39:24;;;;;;;5.38;3.50;;;;;;;18.95;42.48;95105.97;5001885;28;20262;-76
2023/10/29 09:41:54;;;;;;;8.77;3.40;;;;;;;19.29;42.06;95108.66;4990829;28;20261;-78
2023/10/29 09:44:20;;;;;;;5.45;3.13;;;;;;;19.20;41.68;95102.72;5006188;28;20282;-76
2023/10/29 09:46:46;;;;;;;6.40;2.90;;;;;;;19.21;42.01;95104.34;5002137;28;20191;-76
2023/10/29 09:49:13;;;;;;;5.95;2.88;;;;;;;19.20;41.24;95102.72;5004768;28;20227;-76
2023/10/29 09:51:40;;;;;;;5.85;3.08;;;;;;;19.18;41.15;95097.59;5010740;28;20219;-77
2023/10/29 09:54:07;;;;;;;4.72;2.85;;;;;;;19.28;41.28;95093.72;5004087;28;20226;-77
2023/10/29 09:56:34;;;;;;;4.93;2.70;;;;;;;19.45;41.50;95091.47;5004889;28;20226;-76
2023/10/29 09:58:59;;;;;;;8.23;3.13;;;;;;;19.64;40.54;95082.63;5003302;28;20218;-77
2023/10/29 10:01:25;;;;;;;7.40;2.63;;;;;;;19.67;39.89;95079.56;5000027;28;20301;-76
2023/10/29 10:03:50;;;;;;;5.75;3.00;;;;;;;19.65;40.26;95068.28;5005318;28;20227;-76
2023/10/29 10:06:16;;;;;;;7.18;3.05;;;;;;;19.66;39.91;95077.09;5003286;28;20220;-77
2023/10/29 10:08:42;;;;;;;4.60;2.45;;;;;;;19.68;39.80;95073.22;5006179;28;20221;-76
2023/10/29 10:11:21;;;;;;;6.13;2.53;;;;;;;19.76;39.26;95065.00;5005263;28;20540;-77
2023/10/29 10:13:47;;;;;;;4.43;2.40;;;;;;;19.85;39.00;95067.44;5005866;28;20222;-77
2023/10/29 10:16:14;;;;;;;5.25;2.28;;;;;;;19.94;38.68;95067.03;5008481;28;20238;-76
2023/10/29 10:19:07;;;;;;;7.30;2.85;;;;;;;20.05;38.55;95070.91;5010548;28;20234;-76
2023/10/29 10:21:43;;;;;;;5.65;2.20;;;;;;;20.13;38.56;95060.00;5003805;28;20226;-76
2023/10/29 10:24:10;;;;;;;7.82;2.45;;;;;;;20.28;37.96;95057.88;5003764;28;20250;-76
2023/10/29 10:26:37;;;;;;;5.65;2.55;;;;;;;20.38;37.85;95062.78;5003216;28;20219;-75
2023/10/29 10:29:05;;;;;;;4.40;2.15;;;;;;;20.35;37.60;95057.06;5012372;28;20190;-77
2023/10/29 10:31:33;;;;;;;5.03;2.50;;;;;;;20.40;37.46;95050.03;5013607;28;20223;-76
2023/10/29 10:34:11;;;;;;;3.97;2.22;;;;;;;20.46;37.10;95053.72;4994163;28;20221;-76
2023/10/29 10:36:37;;;;;;;5.18;2.35;;;;;;;20.63;37.25;95048.72;5014498;28;20246;-76
2023/10/29 10:39:03;;;;;;;5.38;2.55;;;;;;;20.79;37.12;95044.75;5006642;28;20239;-76
2023/10/29 10:41:45;;;;;;;4.05;2.20;;;;;;;20.90;36.88;95049.41;5006866;28;20231;-76
2023/10/29 10:44:12;;;;;;;3.60;2.13;;;;;;;20.90;36.35;95055.59;5010454;28;20188;-78
2023/10/29 10:46:41;;;;;;;6.22;2.63;;;;;;;20.84;36.87;95043.06;5004100;28;20290;-77
2023/10/29 10:49:09;;;;;;;6.55;2.50;;;;;;;21.00;36.47;95044.41;5006771;28;20231;-77
2023/10/29 10:51:38;;;;;;;4.72;2.50;;;;;;;21.19;36.49;95047.16;5003998;28;20238;-76
2023/10/29 10:54:04;;;;;;;6.28;2.03;;;;;;;21.12;35.98;95048.03;4996120;28;20238;-76
2023/10/29 10:56:37;;;;;;;7.90;2.30;;;;;;;21.29;36.03;95042.16;5006908;28;20219;-76
2023/10/29 10:59:05;;;;;;;5.95;2.45;;;;;;;21.38;35.74;95040.84;4998958;28;20271;-78
2023/10/29 11:01:32;;;;;;;6.65;2.50;;;;;;;21.44;35.42;95042.69;5007609;28;20223;-77
2023/10/29 11:03:58;;;;;;;4.53;2.35;;;;;;;21.51;35.51;95045.28;5006722;28;20268;-77
2023/10/29 11:06:23;;;;;;;4.18;2.00;;;;;;;21.53;35.52;95046.72;5006185;28;20239;-76
2023/10/29 11:08:49;;;;;;;4.90;2.63;;;;;;;21.66;34.98;95039.63;5007753;28;20282;-78
2023/10/29 11:11:16;;;;;;;4.50;2.33;;;;;;;21.74;34.42;95039.31;5010983;28;20202;-74
2023/10/29 11:13:42;;;;;;;5.15;2.10;;;;;;;21.86;33.44;95042.91;5002410;28;20180;-76
2023/10/29 11:16:22;;;;;;;5.07;2.10;;;;;;;22.11;32.66;95040.19;5000491;28;20223;-76
2023/10/29 11:18:48;;;;;;;3.45;1.95;;;;;;;21.83;32.75;95043.34;5008767;28;20218;-76
2023/10/29 11:21:31;;;;;;;4.28;1.77;;;;;;;21.89;32.38;95029.09;5006861;28;20226;-76
2023/10/29 11:24:26;;;;;;;4.07;2.15;;;;;;;22.03;31.34;95027.09;4994845;28;20291;-76
2023/10/29 11:27:30;;;;;;;2.47;1.63;;;;;;;22.17;31.49;95023.22;4960447;28;20231;-75
2023/10/29 11:30:09;;;;;;;4.20;1.95;;;;;;;22.13;31.54;95013.16;4973503;28;20278;-75